Time;durP1;ratioP1;P1;durP2;ratioP2;P2;SDS_P1;SDS_P2;PMS_P1;PMS_P2;Temp;Humidity;BMP_temperature;BMP_pressure;BME280_temperature;BME280_humidity;BME280_pressure;Samples;Min_cycle;Max_cycle;Signal;HPM_P1;HPM_P2
2022/05/21 00:00:43;;;;;;;15.32;8.02;;;;;;;;;;4981254;28;20034;-72
2022/05/21 00:03:09;;;;;;;18.67;8.82;;;;;;;;;;4980747;28;20043;-73
2022/05/21 00:05:36;;;;;;;17.60;9.32;;;;;;;;;;4978948;28;20038;-73
2022/05/21 00:08:08;;;;;;;25.95;10.30;;;;;;;;;;4982336;28;20066;-73
2022/05/21 00:10:34;;;;;;;21.00;11.13;;;;;;;;;;4979312;28;20433;-74
2022/05/21 00:13:01;;;;;;;20.05;11.80;;;;;;;;;;4982010;28;20042;-74
2022/05/21 00:15:28;;;;;;;21.48;12.80;;;;;;;;;;4977963;28;20527;-74
2022/05/21 00:17:54;;;;;;;27.00;13.10;;;;;;;;;;4982080;28;20026;-74
2022/05/21 00:23:13;;;;;;;30.52;14.18;;;;;;;;;;4978292;28;20045;-74
2022/05/21 00:25:39;;;;;;;28.58;13.85;;;;;;;;;;4978203;28;20166;-74
2022/05/21 00:28:05;;;;;;;33.00;14.63;;;;;;;;;;4974574;28;20027;-75
2022/05/21 00:30:32;;;;;;;31.67;14.43;;;;;;;;;;4985048;28;20038;-74
2022/05/21 00:32:58;;;;;;;27.67;14.25;;;;;;;;;;4979535;28;20139;-74
2022/05/21 00:35:24;;;;;;;31.33;14.02;;;;;;;;;;4976404;28;20739;-73
2022/05/21 00:37:50;;;;;;;32.50;14.65;;;;;;;;;;4979974;28;20081;-73
2022/05/21 00:40:16;;;;;;;26.67;14.77;;;;;;;;;;4978532;28;20393;-73
2022/05/21 00:42:46;;;;;;;27.73;15.50;;;;;;;;;;4972148;28;20522;-73
2022/05/21 00:45:13;;;;;;;25.95;14.43;;;;;;;;;;4979208;28;20364;-74
2022/05/21 00:47:40;;;;;;;33.13;14.77;;;;;;;;;;4978858;28;20494;-73
2022/05/21 00:50:07;;;;;;;30.42;15.10;;;;;;;;;;4976502;28;20443;-73
2022/05/21 00:52:34;;;;;;;28.80;14.45;;;;;;;;;;4978685;28;20034;-73
2022/05/21 00:55:02;;;;;;;28.75;12.85;;;;;;;;;;4976157;28;20799;-73
2022/05/21 00:57:30;;;;;;;29.27;11.80;;;;;;;;;;4981349;28;20034;-74
2022/05/21 01:00:17;;;;;;;24.67;11.15;;;12.70;99.90;;;;;;4985621;28;20458;-74
2022/05/21 01:05:21;;;;;;;32.67;12.60;;;;;;;;;;5037347;23;20054;-74
2022/05/21 01:07:47;;;;;;;22.85;9.60;;;;;;;;;;4970694;28;20058;-74
2022/05/21 01:10:15;;;;;;;26.88;9.90;;;;;;;;;;4974846;28;20109;-74
2022/05/21 01:12:45;;;;;;;27.13;10.43;;;;;;;;;;4974892;28;20081;-74
2022/05/21 01:15:14;;;;;;;22.27;10.57;;;12.70;99.90;;;;;;4973251;28;20437;-74
2022/05/21 01:17:40;;;;;;;19.92;9.10;;;;;;;;;;4972687;28;20085;-73
2022/05/21 01:20:08;;;;;;;22.05;10.52;;;;;;;;;;4971616;28;20433;-74
2022/05/21 01:22:40;;;;;;;29.40;11.60;;;;;;;;;;4971230;28;20170;-74
2022/05/21 01:25:06;;;;;;;20.52;10.70;;;;;;;;;;4974284;28;20039;-74
2022/05/21 01:27:32;;;;;;;22.45;9.65;;;;;;;;;;4984289;28;20477;-74
2022/05/21 01:30:01;;;;;;;24.08;11.60;;;12.90;99.90;;;;;;4953903;28;20031;-74
2022/05/21 01:32:28;;;;;;;30.92;12.13;;;;;;;;;;4973147;28;20402;-74
2022/05/21 01:34:54;;;;;;;29.85;9.60;;;;;;;;;;4973565;28;20043;-74
2022/05/21 01:37:20;;;;;;;27.73;10.57;;;;;;;;;;4955035;29;20154;-74
2022/05/21 01:39:46;;;;;;;27.92;11.43;;;;;;;;;;4975418;28;20256;-73
2022/05/21 01:42:12;;;;;;;37.38;11.38;;;;;;;;;;4973802;28;20117;-74
2022/05/21 01:44:38;;;;;;;28.92;10.32;;;;;;;;;;4973356;28;20754;-74
2022/05/21 01:47:10;;;;;;;29.08;9.45;;;13.10;99.90;;;;;;4973522;28;20031;-73
2022/05/21 01:49:36;;;;;;;34.40;10.60;;;;;;;;;;4953008;28;20038;-73
2022/05/21 01:52:03;;;;;;;26.65;9.77;;;;;;;;;;4957921;28;20030;-74
2022/05/21 01:54:30;;;;;;;34.33;10.32;;;;;;;;;;4974197;28;20394;-74
2022/05/21 01:56:56;;;;;;;24.67;8.43;;;;;;;;;;4971443;28;20427;-74
2022/05/21 01:59:22;;;;;;;20.80;8.85;;;;;;;;;;4972325;28;20118;-74
2022/05/21 02:01:48;;;;;;;18.08;7.15;;;;;;;;;;4971069;28;20148;-74
2022/05/21 02:04:15;;;;;;;33.35;7.60;;;;;;;;;;4965338;28;20050;-74
2022/05/21 02:06:42;;;;;;;30.58;7.93;;;;;;;;;;4953520;28;20042;-74
2022/05/21 02:09:08;;;;;;;29.30;8.05;;;;;;;;;;4965135;28;20046;-74
2022/05/21 02:11:34;;;;;;;33.15;6.78;;;;;;;;;;4953317;28;20369;-74
2022/05/21 02:14:00;;;;;;;25.63;7.38;;;;;;;;;;4955554;29;20069;-74
2022/05/21 02:16:28;;;;;;;28.52;8.25;;;;;;;;;;4963695;28;20026;-75
2022/05/21 02:18:54;;;;;;;27.65;7.35;;;;;;;;;;4958755;28;20530;-75
2022/05/21 02:21:20;;;;;;;23.70;5.70;;;;;;;;;;4944588;28;20034;-74
2022/05/21 02:23:46;;;;;;;27.83;5.90;;;;;;;;;;4954522;28;20407;-74
2022/05/21 02:26:12;;;;;;;22.58;5.68;;;;;;;;;;4951121;28;20023;-74
2022/05/21 02:28:39;;;;;;;20.80;5.88;;;;;;;;;;4950263;28;20086;-75
2022/05/21 02:31:05;;;;;;;32.67;7.10;;;;;;;;;;4958334;28;20039;-74
2022/05/21 02:33:31;;;;;;;23.88;5.28;;;;;;;;;;4937727;29;20538;-74
2022/05/21 02:35:57;;;;;;;25.65;5.68;;;;;;;;;;4930695;28;20054;-74
2022/05/21 02:41:15;;;;;;;29.77;5.35;;;;;;;;;;4957763;28;20042;-75
2022/05/21 02:43:43;;;;;;;34.65;6.57;;;;;;;;;;4956083;28;20032;-75
2022/05/21 02:46:09;;;;;;;35.83;5.90;;;;;;;;;;4949545;28;20146;-75
2022/05/21 02:48:35;;;;;;;26.85;5.40;;;;;;;;;;4972709;28;20045;-75
2022/05/21 02:51:01;;;;;;;22.48;4.40;;;;;;;;;;4963065;28;20078;-75
2022/05/21 02:53:27;;;;;;;25.00;4.82;;;;;;;;;;4954613;28;20077;-75
2022/05/21 02:55:55;;;;;;;24.05;5.43;;;;;;;;;;4953527;29;20062;-75
2022/05/21 02:58:21;;;;;;;27.40;5.78;;;;;;;;;;4956991;28;20089;-73
2022/05/21 03:00:48;;;;;;;22.35;4.68;;;;;;;;;;4963208;28;20058;-74
2022/05/21 03:03:14;;;;;;;25.00;4.72;;;;;;;;;;4961608;28;20036;-74
2022/05/21 03:05:40;;;;;;;34.85;5.75;;;;;;;;;;4986828;28;20054;-74
2022/05/21 03:10:56;;;;;;;24.00;4.03;;;;;;;;;;4936006;28;20035;-74
2022/05/21 03:13:23;;;;;;;27.15;3.83;;;;;;;;;;4970743;28;20046;-74
2022/05/21 03:15:49;;;;;;;24.50;5.80;;;;;;;;;;4973177;28;20038;-74
2022/05/21 03:18:15;;;;;;;32.58;5.95;;;;;;;;;;4971828;28;20034;-74
2022/05/21 03:20:42;;;;;;;25.13;4.05;;;;;;;;;;4971195;28;20030;-74
2022/05/21 03:23:08;;;;;;;25.55;4.85;;;;;;;;;;4971043;28;20045;-74
2022/05/21 03:25:34;;;;;;;25.08;5.72;;;;;;;;;;4963690;28;20528;-74
2022/05/21 03:28:00;;;;;;;25.10;4.15;;;;;;;;;;4972214;28;20141;-74
2022/05/21 03:30:28;;;;;;;32.85;6.00;;;;;;;;;;4961190;28;20041;-74
2022/05/21 03:32:54;;;;;;;20.58;4.40;;;;;;;;;;4969967;28;20030;-73
2022/05/21 03:35:21;;;;;;;33.00;6.10;;;;;;;;;;4972318;28;20031;-74
2022/05/21 03:37:47;;;;;;;29.70;5.20;;;;;;;;;;4969997;28;20038;-74
2022/05/21 03:40:16;;;;;;;19.83;4.05;;;;;;;;;;4972353;28;20046;-74
2022/05/21 03:42:42;;;;;;;19.27;4.35;;;;;;;;;;4970748;28;20038;-74
2022/05/21 03:45:08;;;;;;;20.92;4.32;;;;;;;;;;4970213;28;20043;-74
2022/05/21 03:47:34;;;;;;;18.98;3.65;;;;;;;;;;4970529;28;20090;-74
2022/05/21 03:50:00;;;;;;;25.58;4.13;;;;;;;;;;4972018;28;20120;-74
2022/05/21 03:52:26;;;;;;;19.33;4.28;;;;;;;;;;4971776;28;20668;-74
2022/05/21 03:54:52;;;;;;;18.60;4.55;;;;;;;;;;4981908;28;20037;-74
2022/05/21 03:57:19;;;;;;;22.75;5.40;;;;;;;;;;4971610;28;20031;-77
2022/05/21 03:59:45;;;;;;;15.00;3.35;;;;;;;;;;4967475;28;20197;-76
2022/05/21 04:02:11;;;;;;;27.15;4.35;;;;;;;;;;4956495;28;20039;-76
2022/05/21 04:04:38;;;;;;;20.60;4.10;;;;;;;;;;4970799;28;20065;-75
2022/05/21 04:07:05;;;;;;;22.42;4.22;;;;;;;;;;4968276;28;20109;-76
2022/05/21 04:09:31;;;;;;;16.45;3.40;;;;;;;;;;4971548;28;20027;-76
2022/05/21 04:11:57;;;;;;;22.45;6.60;;;;;;;;;;4954460;28;20037;-74
2022/05/21 04:14:27;;;;;;;14.68;3.45;;;;;;;;;;4970306;28;20070;-74
2022/05/21 04:16:54;;;;;;;15.85;3.30;;;;;;;;;;4968064;28;20161;-75
2022/05/21 04:19:20;;;;;;;16.25;3.80;;;;;;;;;;4966194;28;20537;-77
2022/05/21 04:21:46;;;;;;;15.98;2.65;;;;;;;;;;4964731;28;20117;-77
2022/05/21 04:24:12;;;;;;;13.38;3.33;;;;;;;;;;4966541;28;20098;-74
2022/05/21 04:26:38;;;;;;;23.95;3.25;;;;;;;;;;4967603;28;20039;-75
2022/05/21 04:29:04;;;;;;;20.58;3.90;;;;;;;;;;4983706;28;20030;-75
2022/05/21 04:31:31;;;;;;;15.82;2.83;;;;;;;;;;4971408;28;20034;-75
2022/05/21 04:33:56;;;;;;;20.25;3.08;;;;;;;;;;4975951;28;20082;-75
2022/05/21 04:36:23;;;;;;;22.50;3.47;;;;;;;;;;4972816;28;20050;-76
2022/05/21 04:38:50;;;;;;;15.82;2.90;;;;;;;;;;4958875;28;20352;-75
2022/05/21 04:41:16;;;;;;;16.58;2.78;;;;;;;;;;4973929;28;20070;-76
2022/05/21 04:43:43;;;;;;;14.32;2.67;;;;;;;;;;4975027;28;20037;-76
2022/05/21 04:46:09;;;;;;;14.15;2.78;;;;;;;;;;4972877;28;20034;-76
2022/05/21 04:48:36;;;;;;;18.10;3.08;;;;;;;;;;4973377;28;20145;-76
2022/05/21 04:51:03;;;;;;;12.80;2.42;;;;;;;;;;4975997;28;20023;-76
2022/05/21 04:53:29;;;;;;;14.60;3.00;;;;;;;;;;4974840;28;20038;-76
2022/05/21 04:55:56;;;;;;;14.60;3.20;;;;;;;;;;4973229;28;20071;-75
2022/05/21 04:58:22;;;;;;;13.52;2.38;;;;;;;;;;4974669;28;20030;-75
2022/05/21 05:00:48;;;;;;;19.45;2.55;;;;;;;;;;4971871;28;20556;-76
2022/05/21 05:03:15;;;;;;;13.32;2.30;;;;;;;;;;4977690;28;20102;-76
2022/05/21 05:05:42;;;;;;;9.50;1.90;;;;;;;;;;4976432;28;20222;-76
2022/05/21 05:08:09;;;;;;;18.67;3.28;;;;;;;;;;4957978;28;20031;-74
2022/05/21 05:10:36;;;;;;;12.82;3.17;;;;;;;;;;4947029;28;20054;-75
2022/05/21 05:13:02;;;;;;;14.38;2.88;;;;;;;;;;4969494;28;20041;-76
2022/05/21 05:15:28;;;;;;;23.27;3.10;;;;;;;;;;4973189;28;20034;-76
2022/05/21 05:18:01;;;;;;;14.38;2.78;;;;;;;;;;4972246;28;20466;-76
2022/05/21 05:20:27;;;;;;;15.90;3.30;;;;;;;;;;4975595;28;20034;-76
2022/05/21 05:22:53;;;;;;;14.05;2.80;;;;;;;;;;4970411;28;20031;-76
2022/05/21 05:25:19;;;;;;;19.88;3.08;;;;;;;;;;4972767;28;20105;-75
2022/05/21 05:27:47;;;;;;;18.15;3.13;;;13.40;99.90;;;;;;4972561;28;20430;-76
2022/05/21 05:30:13;;;;;;;12.73;2.58;;;;;;;;;;4973660;28;20023;-77
2022/05/21 05:32:40;;;;;;;18.98;4.28;;;;;;;;;;4974157;28;20057;-77
2022/05/21 05:35:06;;;;;;;18.27;2.63;;;;;;;;;;4973684;28;20027;-77
2022/05/21 05:37:32;;;;;;;15.00;2.55;;;;;;;;;;4972940;28;20118;-77
2022/05/21 05:39:58;;;;;;;19.17;3.70;;;;;;;;;;4957995;28;20039;-76
2022/05/21 05:42:25;;;;;;;16.40;3.30;;;;;;;;;;4972463;28;20034;-77
2022/05/21 05:44:51;;;;;;;17.50;2.85;;;;;;;;;;4974060;28;20035;-77
2022/05/21 05:47:17;;;;;;;13.98;3.00;;;;;;;;;;4971102;28;20366;-77
2022/05/21 05:49:43;;;;;;;17.27;2.85;;;;;;;;;;4973168;28;20080;-76
2022/05/21 05:52:09;;;;;;;15.68;3.22;;;;;;;;;;4975296;28;20518;-80
2022/05/21 05:54:35;;;;;;;15.68;2.95;;;;;;;;;;4986216;28;20045;-82
2022/05/21 05:57:02;;;;;;;16.15;2.97;;;;;;;;;;4973683;28;20054;-80
2022/05/21 06:04:57;;;;;;;14.45;4.25;;;;;;;;;;4976391;28;20410;-79
2022/05/21 06:07:23;;;;;;;37.92;15.10;;;;;;;;;;4969315;28;20035;-79
2022/05/21 06:09:50;;;;;;;14.60;3.80;;;;;;;;;;4972947;28;20071;-79
2022/05/21 06:12:16;;;;;;;15.50;2.83;;;;;;;;;;4972365;28;20101;-79
2022/05/21 06:14:42;;;;;;;17.52;3.28;;;;;;;;;;4967092;28;20077;-78
2022/05/21 06:17:09;;;;;;;19.75;2.90;;;;;;;;;;4971074;28;20046;-77
2022/05/21 06:19:35;;;;;;;10.73;2.88;;;;;;;;;;4958536;28;20039;-75
2022/05/21 06:22:03;;;;;;;17.98;2.55;;;15.30;99.90;;;;;;4974017;28;20166;-76
2022/05/21 06:24:29;;;;;;;20.83;3.53;;;;;;;;;;4974505;28;20042;-76
2022/05/21 06:26:56;;;;;;;20.90;3.42;;;;;;;;;;4970209;28;20050;-77
2022/05/21 06:29:22;;;;;;;19.55;3.67;;;;;;;;;;4952589;28;20125;-77
2022/05/21 06:31:48;;;;;;;15.75;2.78;;;;;;;;;;4971781;28;20031;-76
2022/05/21 06:34:14;;;;;;;12.73;2.58;;;;;;;;;;4973185;28;20041;-77
2022/05/21 06:36:40;;;;;;;15.68;2.67;;;;;;;;;;4950762;28;20043;-77
2022/05/21 06:39:06;;;;;;;19.90;2.67;;;;;;;;;;4970237;28;20070;-78
2022/05/21 06:41:32;;;;;;;16.45;3.10;;;;;;;;;;4968120;28;20041;-76
2022/05/21 06:43:58;;;;;;;13.80;2.15;;;;;;;;;;4973818;28;20478;-76
2022/05/21 06:46:24;;;;;;;12.48;2.72;;;;;;;;;;4973327;28;20126;-76
2022/05/21 06:48:51;;;;;;;15.73;2.47;;;;;;;;;;4972756;28;20058;-76
2022/05/21 06:51:17;;;;;;;18.10;3.33;;;;;;;;;;4951504;28;21999;-76
2022/05/21 06:53:43;;;;;;;16.23;3.78;;;;;;;;;;4961840;28;20044;-76
2022/05/21 06:56:16;;;;;;;18.27;3.15;;;;;;;;;;4949470;28;20031;-76
2022/05/21 06:58:42;;;;;;;15.93;2.80;;;;;;;;;;4978244;28;20061;-76
2022/05/21 07:01:09;;;;;;;13.18;2.25;;;;;;;;;;4974538;28;20026;-77
2022/05/21 07:03:35;;;;;;;13.82;2.53;;;;;;;;;;4953194;28;20398;-78
2022/05/21 07:08:47;;;;;;;22.95;3.75;;;;;;;;;;4947551;28;20557;-79
2022/05/21 07:11:13;;;;;;;16.52;2.97;;;;;;;;;;4938292;29;20122;-78
2022/05/21 07:13:39;;;;;;;15.73;3.00;;;;;;;;;;4936360;29;20050;-78
2022/05/21 07:16:05;;;;;;;11.82;2.42;;;;;;;;;;4949750;28;20095;-78
2022/05/21 07:18:31;;;;;;;12.82;2.60;;;;;;;;;;4934804;29;20031;-78
2022/05/21 07:20:57;;;;;;;13.85;2.58;;;;;;;;;;4955005;29;20489;-78
2022/05/21 07:23:24;;;;;;;9.38;2.38;;;;;;;;;;4952603;28;20175;-79
2022/05/21 07:25:50;;;;;;;12.75;2.88;;;;;;;;;;4953703;28;20053;-79
2022/05/21 07:28:17;;;;;;;15.25;2.38;;;;;;;;;;4954846;29;20047;-79
2022/05/21 07:30:45;;;;;;;19.05;2.95;;;;;;;;;;4955995;29;20063;-78
2022/05/21 07:33:13;;;;;;;11.77;1.88;;;;;;;;;;4941991;29;20038;-78
2022/05/21 07:35:39;;;;;;;12.70;2.35;;;;;;;;;;4954522;29;20039;-79
2022/05/21 07:38:06;;;;;;;11.55;2.80;;;;;;;;;;4951933;28;20541;-78
2022/05/21 07:40:32;;;;;;;17.58;2.67;;;;;;;;;;4954155;29;20111;-78
2022/05/21 07:42:58;;;;;;;10.68;2.53;;;;;;;;;;4954647;29;20500;-78
2022/05/21 07:45:24;;;;;;;10.93;2.40;;;;;;;;;;4957949;29;20094;-78
2022/05/21 07:47:50;;;;;;;18.80;3.20;;;;;;;;;;4953262;28;20108;-79
2022/05/21 07:50:17;;;;;;;15.98;2.45;;;18.40;99.90;;;;;;4955775;29;20027;-78
2022/05/21 07:52:44;;;;;;;13.55;2.63;;;;;;;;;;4955479;28;20056;-79
2022/05/21 07:55:10;;;;;;;14.38;3.50;;;;;;;;;;4955142;29;20091;-79
2022/05/21 07:57:36;;;;;;;16.10;2.97;;;;;;;;;;4954060;28;20051;-79
2022/05/21 08:00:07;;;;;;;14.30;2.45;;;;;;;;;;4955364;28;20339;-78
2022/05/21 08:02:33;;;;;;;12.05;2.40;;;;;;;;;;4947923;29;20027;-78
2022/05/21 08:05:00;;;;;;;15.27;2.53;;;;;;;;;;4964548;28;20102;-79
2022/05/21 08:07:26;;;;;;;12.60;3.10;;;;;;;;;;4963374;28;20438;-79
2022/05/21 08:09:52;;;;;;;12.00;2.45;;;;;;;;;;4979737;28;20041;-79
2022/05/21 08:12:18;;;;;;;17.95;2.72;;;;;;;;;;4978683;28;20113;-79
2022/05/21 08:14:44;;;;;;;14.32;2.70;;;;;;;;;;4978518;28;20097;-79
2022/05/21 08:17:10;;;;;;;13.30;3.00;;;;;;;;;;4980564;28;20158;-79
2022/05/21 08:19:37;;;;;;;17.75;2.55;;;;;;;;;;4975454;28;20030;-78
2022/05/21 08:27:32;;;;;;;11.20;2.60;;;;;;;;;;4972486;28;20113;-78
2022/05/21 08:29:59;;;;;;;13.98;2.95;;;;;;;;;;4974326;28;20142;-77
2022/05/21 08:32:25;;;;;;;17.00;3.10;;;;;;;;;;4974115;28;20034;-77
2022/05/21 08:34:52;;;;;;;14.82;2.63;;;;;;;;;;4976983;28;20042;-80
2022/05/21 08:37:19;;;;;;;13.05;2.47;;;;;;;;;;4972134;28;20027;-78
2022/05/21 08:39:45;;;;;;;13.07;2.55;;;;;;;;;;4973146;28;20832;-78
2022/05/21 08:42:17;;;;;;;15.32;2.45;;;20.30;99.90;;;;;;4975764;28;20042;-78
2022/05/21 08:44:46;;;;;;;14.82;2.40;;;;;;;;;;4975689;28;20041;-80
2022/05/21 08:47:21;;;;;;;10.32;2.42;;;;;;;;;;4975056;28;20390;-78
2022/05/21 08:49:53;;;;;;;13.13;4.22;;;;;;;;;;4975150;28;20039;-78
2022/05/21 08:52:19;;;;;;;;;;;;;;;;;;4974761;28;20033;-75
2022/05/21 08:54:47;;;;;;;12.25;2.38;;;;;;;;;;4971921;28;19914;-78
2022/05/21 08:57:35;;;;;;;12.88;2.55;;;20.00;99.90;;;;;;4970144;28;20038;-78
2022/05/21 09:00:07;;;;;;;15.48;2.67;;;;;;;;;;4975091;28;20027;-79
2022/05/21 09:02:34;;;;;;;12.55;2.35;;;;;;;;;;4963247;28;20031;-78
2022/05/21 09:05:01;;;;;;;13.65;2.50;;;;;;;;;;4963213;28;20051;-78
2022/05/21 09:07:30;;;;;;;12.80;2.50;;;;;;;;;;4954670;28;20505;-79
2022/05/21 09:10:02;;;;;;;10.35;1.83;;;;;;;;;;4953963;29;20039;-78
2022/05/21 09:12:42;;;;;;;14.32;2.60;;;;;;;;;;4955279;28;20031;-79
2022/05/21 09:16:54;;;;;;;15.93;2.75;;;20.50;99.90;;;;;;4953057;28;20033;-78
2022/05/21 09:18:01;;;;;;;10.05;2.03;;;;;;;;;;4948812;28;20067;-79
2022/05/21 09:20:29;;;;;;;8.50;1.58;;;20.10;99.90;;;;;;4938295;29;20031;-78
2022/05/21 09:22:56;;;;;;;7.97;1.70;;;;;;;;;;4948638;29;20031;-78
2022/05/21 09:25:26;;;;;;;14.40;2.30;;;;;;;;;;4951944;29;20037;-78
2022/05/21 09:28:06;;;;;;;9.18;1.70;;;;;;;;;;4954972;29;22563;-79
2022/05/21 09:30:36;;;;;;;11.25;2.67;;;;;;;;;;4951504;28;20027;-76
2022/05/21 09:33:21;;;;;;;9.77;2.40;;;22.30;99.90;;;;;;4954789;29;20041;-77
2022/05/21 09:35:56;;;;;;;16.23;2.78;;;22.20;99.90;;;;;;4938627;28;20127;-79
2022/05/21 09:38:33;;;;;;;11.90;3.05;;;22.20;99.90;;;;;;4964507;28;20027;-79
2022/05/21 09:41:13;;;;;;;9.75;2.08;;;;;;;;;;4954631;28;20035;-80
2022/05/21 09:46:34;;;;;;;12.13;2.70;;;;;;;;;;4955994;29;20035;-80
2022/05/21 09:49:15;;;;;;;12.13;2.45;;;;;;;;;;4942066;29;20035;-80
2022/05/21 09:51:41;;;;;;;11.82;1.88;;;;;;;;;;4940329;29;20023;-80
2022/05/21 09:54:21;;;;;;;12.10;2.22;;;;;;;;;;4955861;28;20493;-80
2022/05/21 09:56:49;;;;;;;9.65;1.80;;;21.70;99.90;;;;;;4957710;28;20030;-79
2022/05/21 09:59:17;;;;;;;13.77;2.83;;;;;;;;;;4947264;29;20166;-78
2022/05/21 10:01:45;;;;;;;11.52;2.15;;;21.50;99.90;;;;;;4951952;29;20031;-79
2022/05/21 10:04:11;;;;;;;9.95;2.33;;;;;;;;;;4958421;28;20050;-78
2022/05/21 10:06:40;;;;;;;10.57;2.00;;;;;;;;;;4973824;28;20407;-78
2022/05/21 10:12:04;;;;;;;9.27;2.38;;;;;;;;;;4960011;28;20061;-78
2022/05/21 10:14:40;;;;;;;9.30;1.98;;;;;;;;;;4952569;28;20041;-77
2022/05/21 10:17:12;;;;;;;11.13;2.22;;;22.80;99.70;;;;;;4951912;28;20038;-77
2022/05/21 10:19:47;;;;;;;12.50;2.85;;;;;;;;;;4972642;28;20109;-77
2022/05/21 10:22:16;;;;;;;12.68;2.55;;;;;;;;;;4973031;28;20038;-77
2022/05/21 10:24:42;;;;;;;11.60;2.20;;;;;;;;;;4969753;28;20466;-79
2022/05/21 10:27:17;;;;;;;9.23;1.98;;;;;;;;;;4973734;28;20045;-78
2022/05/21 10:30:03;;;;;;;8.52;2.40;;;;;;;;;;4973297;28;20037;-80
2022/05/21 10:32:41;;;;;;;12.32;2.67;;;;;;;;;;4974912;28;20109;-81
2022/05/21 10:35:25;;;;;;;12.20;2.67;;;;;;;;;;4970941;28;20035;-80
2022/05/21 10:38:24;;;;;;;14.18;2.42;;;22.30;99.10;;;;;;4978035;28;20075;-80
2022/05/21 10:40:57;;;;;;;9.23;2.47;;;;;;;;;;4974388;28;20106;-81
2022/05/21 10:44:02;;;;;;;12.32;2.30;;;21.40;99.90;;;;;;4970663;28;20075;-80
2022/05/21 10:46:46;;;;;;;13.32;2.95;;;;;;;;;;4972576;28;20398;-80
2022/05/21 10:49:23;;;;;;;13.48;2.63;;;;;;;;;;4970513;28;20027;-81
2022/05/21 10:51:56;;;;;;;10.52;2.42;;;;;;;;;;4965596;28;20031;-77
2022/05/21 10:54:50;;;;;;;11.85;2.20;;;20.50;99.90;;;;;;4944319;28;20041;-78
2022/05/21 10:57:25;;;;;;;8.43;2.20;;;;;;;;;;4963559;28;20039;-79
2022/05/21 11:00:19;;;;;;;10.45;1.85;;;21.50;99.90;;;;;;4967123;28;20085;-78
2022/05/21 11:03:00;;;;;;;11.93;2.47;;;;;;;;;;4949508;28;20522;-78
2022/05/21 11:05:30;;;;;;;13.13;2.43;;;;;;;;;;4965922;28;20051;-79
2022/05/21 11:08:16;;;;;;;11.98;2.17;;;;;;;;;;4960225;28;20490;-80
2022/05/21 11:10:48;;;;;;;12.48;2.38;;;;;;;;;;4976575;28;20494;-79
2022/05/21 11:13:23;;;;;;;7.53;1.88;;;;;;;;;;4974551;28;20543;-80
2022/05/21 11:15:52;;;;;;;15.73;3.83;;;;;;;;;;4975897;28;20384;-80
2022/05/21 11:18:30;;;;;;;12.07;2.53;;;;;;;;;;4966675;28;20031;-80
2022/05/21 11:21:02;;;;;;;8.00;1.70;;;;;;;;;;4973452;28;20031;-80
2022/05/21 11:23:35;;;;;;;9.27;2.08;;;;;;;;;;4972385;28;20046;-79
2022/05/21 11:26:32;;;;;;;10.27;2.67;;;20.80;99.90;;;;;;4974733;28;20035;-79
2022/05/21 11:29:07;;;;;;;10.93;2.53;;;;;;;;;;4966953;28;20478;-80
2022/05/21 11:37:30;;;;;;;19.02;2.97;;;;;;;;;;4973133;28;20049;-80
2022/05/21 11:39:57;;;;;;;84.47;9.68;;;21.10;99.90;;;;;;4956859;28;20042;-81
2022/05/21 11:42:30;;;;;;;19.05;5.25;;;21.30;99.90;;;;;;4968451;28;20038;-79
2022/05/21 11:45:12;;;;;;;16.83;4.88;;;21.50;99.90;;;;;;4953708;28;20050;-78
2022/05/21 11:47:49;;;;;;;10.18;2.75;;;21.10;99.90;;;;;;4970737;28;20062;-78
2022/05/21 11:50:17;;;;;;;13.50;2.65;;;;;;;;;;4969760;28;20062;-79
2022/05/21 11:52:54;;;;;;;36.47;6.57;;;;;;;;;;4969247;28;20031;-77
2022/05/21 11:55:22;;;;;;;11.68;2.42;;;;;;;;;;4968403;28;20463;-76
2022/05/21 11:57:48;;;;;;;16.38;3.05;;;;;;;;;;4972465;28;20031;-76
2022/05/21 12:00:17;;;;;;;10.20;2.33;;;;;;;;;;4969406;28;20580;-76
2022/05/21 12:03:02;;;;;;;10.48;2.22;;;;;;;;;;4976769;28;20378;-76
2022/05/21 12:05:34;;;;;;;18.05;1.85;;;;;;;;;;4971659;28;20051;-76
2022/05/21 12:08:00;;;;;;;;;;;;;;;;;;4972681;28;20359;-76
2022/05/21 12:10:30;;;;;;;10.85;2.15;;;;;;;;;;4971996;28;19925;-76
2022/05/21 12:13:06;;;;;;;11.90;2.20;;;;;;;;;;4971277;28;20038;-76
2022/05/21 12:15:46;;;;;;;8.30;1.90;;;;;;;;;;4971252;28;20034;-76
2022/05/21 12:18:32;;;;;;;9.68;2.97;;;;;;;;;;4968018;28;20027;-76
2022/05/21 12:20:58;;;;;;;5.65;1.25;;;;;;;;;;4959309;28;20075;-76
2022/05/21 12:23:34;;;;;;;6.85;1.50;;;;;;;;;;4971749;28;20031;-76
2022/05/21 12:26:05;;;;;;;9.25;2.00;;;;;;;;;;4973616;28;20085;-76
2022/05/21 12:28:39;;;;;;;18.70;2.90;;;;;;;;;;4965899;28;20061;-76
2022/05/21 12:31:10;;;;;;;11.40;1.58;;;;;;;;;;4971970;28;20033;-76
2022/05/21 12:33:38;;;;;;;9.85;1.48;;;;;;;;;;4970081;28;20405;-76
2022/05/21 12:36:11;;;;;;;8.40;1.88;;;;;;;;;;4972502;28;20511;-76
2022/05/21 12:38:38;;;;;;;8.25;1.67;;;;;;;;;;4970322;28;20042;-76
2022/05/21 12:41:13;;;;;;;9.25;1.63;;;21.00;99.90;;;;;;4972501;28;20034;-76
2022/05/21 12:43:56;;;;;;;7.00;1.65;;;20.50;99.90;;;;;;4973578;28;20049;-76
2022/05/21 12:46:32;;;;;;;7.93;1.63;;;;;;;;;;4964577;28;20394;-76
2022/05/21 12:48:59;;;;;;;8.30;1.92;;;;;;;;;;4953259;29;20031;-75
2022/05/21 12:51:31;;;;;;;9.10;1.67;;;20.80;99.90;;;;;;4974116;28;20042;-75
2022/05/21 12:54:03;;;;;;;10.27;2.13;;;;;;;;;;4974731;28;20394;-75
2022/05/21 12:56:35;;;;;;;12.63;2.42;;;21.20;99.90;;;;;;4975007;28;20035;-75
2022/05/21 12:59:11;;;;;;;8.95;2.40;;;21.20;99.90;;;;;;4969904;28;20058;-75
2022/05/21 13:01:43;;;;;;;6.93;2.13;;;;;;;;;;4975879;28;20493;-76
2022/05/21 13:04:25;;;;;;;7.88;1.50;;;;;;;;;;4974377;28;20061;-76
2022/05/21 13:06:57;;;;;;;12.13;1.55;;;;;;;;;;4974444;28;20054;-76
2022/05/21 13:09:24;;;;;;;6.75;1.55;;;;;;;;;;4973984;28;20031;-76
2022/05/21 13:11:50;;;;;;;11.63;2.45;;;;;;;;;;4974671;28;20035;-76
2022/05/21 13:14:29;;;;;;;9.10;2.28;;;;;;;;;;4974003;28;20039;-76
2022/05/21 13:16:57;;;;;;;10.50;1.80;;;;;;;;;;4980985;28;20026;-75
2022/05/21 13:19:41;;;;;;;12.23;2.00;;;20.90;98.60;;;;;;4978671;28;20034;-75
2022/05/21 13:22:22;;;;;;;11.57;2.30;;;21.20;99.90;;;;;;4960404;28;20232;-75
2022/05/21 13:24:53;;;;;;;9.50;2.10;;;;;;;;;;4974582;28;20039;-75
2022/05/21 13:27:21;;;;;;;14.07;2.38;;;21.30;99.90;;;;;;4975770;28;20035;-75
2022/05/21 13:29:48;;;;;;;9.07;2.10;;;21.10;99.90;;;;;;4973214;28;20533;-75
2022/05/21 13:32:24;;;;;;;12.18;2.30;;;;;;;;;;4958861;28;20090;-76
2022/05/21 13:34:51;;;;;;;12.27;2.63;;;;;;;;;;4957318;28;20041;-77
2022/05/21 13:37:17;;;;;;;13.20;2.40;;;;;;;;;;4975321;28;20066;-76
2022/05/21 13:39:55;;;;;;;11.65;2.50;;;;;;;;;;4972346;28;20117;-77
2022/05/21 13:42:22;;;;;;;13.93;2.92;;;;;;;;;;4970159;28;20028;-76
2022/05/21 13:44:49;;;;;;;14.02;2.70;;;;;;;;;;4961761;28;20047;-76
2022/05/21 13:47:22;;;;;;;13.23;2.60;;;;;;;;;;4975728;28;20114;-76
2022/05/21 13:49:55;;;;;;;19.92;2.35;;;19.70;99.90;;;;;;4974698;28;20039;-75
2022/05/21 13:52:22;;;;;;;15.73;3.08;;;;;;;;;;4950681;28;20085;-76
2022/05/21 13:54:48;;;;;;;14.98;2.85;;;;;;;;;;4974032;28;20035;-75
2022/05/21 13:57:25;;;;;;;9.50;1.90;;;19.70;99.90;;;;;;4972534;28;20034;-78
2022/05/21 13:59:54;;;;;;;11.50;3.10;;;;;;;;;;4967916;28;20059;-75
2022/05/21 14:02:40;;;;;;;11.48;2.00;;;;;;;;;;4972768;28;20479;-75
2022/05/21 14:05:19;;;;;;;12.40;1.95;;;;;;;;;;4968748;28;20068;-75
2022/05/21 14:07:49;;;;;;;9.68;2.15;;;;;;;;;;4967355;28;20489;-76
2022/05/21 14:10:15;;;;;;;11.80;2.40;;;;;;;;;;4969091;28;20122;-76
2022/05/21 14:12:52;;;;;;;11.75;1.90;;;19.80;99.90;;;;;;4970232;28;20046;-76
2022/05/21 14:15:22;;;;;;;9.10;2.35;;;;;;;;;;4973130;28;20035;-75
2022/05/21 14:17:55;;;;;;;9.40;2.08;;;;;;;;;;4972211;28;20022;-75
2022/05/21 14:20:27;;;;;;;8.60;1.90;;;19.30;99.90;;;;;;4958144;28;20109;-80
2022/05/21 14:22:54;;;;;;;12.63;2.92;;;;;;;;;;4971272;28;20038;-75
2022/05/21 14:25:31;;;;;;;14.07;2.33;;;19.40;99.90;;;;;;4972147;28;20034;-75
2022/05/21 14:28:00;;;;;;;8.57;2.05;;;;;;;;;;4972737;28;20132;-76
2022/05/21 14:30:34;;;;;;;11.73;2.40;;;;;;;;;;4966177;28;20553;-76
2022/05/21 14:33:16;;;;;;;12.82;2.70;;;;;;;;;;4969806;28;20039;-77
2022/05/21 14:35:42;;;;;;;13.70;2.57;;;;;;;;;;4966655;28;20023;-77
2022/05/21 14:38:09;;;;;;;14.50;2.28;;;;;;;;;;4973986;28;20034;-77
2022/05/21 14:40:50;;;;;;;13.18;2.67;;;;;;;;;;4967609;28;20042;-77
2022/05/21 14:43:24;;;;;;;15.20;2.38;;;;;;;;;;4971245;28;20479;-78
2022/05/21 14:45:50;;;;;;;13.70;2.55;;;19.30;99.90;;;;;;4967372;28;20081;-76
2022/05/21 14:48:16;;;;;;;13.15;3.00;;;;;;;;;;4975683;28;20114;-77
2022/05/21 14:53:38;;;;;;;15.30;2.97;;;;;;;;;;4972530;28;20081;-78
2022/05/21 14:56:07;;;;;;;15.32;2.53;;;;;;;;;;4968942;28;20023;-78
2022/05/21 14:58:33;;;;;;;11.73;2.38;;;;;;;;;;4975836;28;20390;-78
2022/05/21 15:01:01;;;;;;;12.95;2.35;;;;;;;;;;4972784;28;20398;-77
2022/05/21 15:03:27;;;;;;;15.93;2.25;;;;;;;;;;4954669;28;20448;-76
2022/05/21 15:05:52;;;;;;;15.38;2.55;;;19.20;99.90;;;;;;4973421;28;20414;-77
2022/05/21 15:08:21;;;;;;;14.32;2.67;;;;;;;;;;4968960;28;20035;-77